createdAt,value
2023-03-16T00:02:21.689Z,6.03
2023-03-16T00:04:48.400Z,4.77
2023-03-16T00:07:15.575Z,5.00
2023-03-16T00:09:42.493Z,4.83
2023-03-16T00:12:19.933Z,5.80
2023-03-16T00:14:48.392Z,5.27
2023-03-16T00:17:20.639Z,5.93
2023-03-16T00:19:54.982Z,5.93
2023-03-16T00:22:31.166Z,5.57
2023-03-16T00:24:58.396Z,5.40
2023-03-16T00:27:26.388Z,5.40
2023-03-16T00:29:57.092Z,4.90
2023-03-16T00:32:26.796Z,5.23
2023-03-16T00:34:53.474Z,5.17
2023-03-16T00:37:23.244Z,5.77
2023-03-16T00:39:51.655Z,5.50
2023-03-16T00:42:20.112Z,5.67
2023-03-16T00:44:46.856Z,5.63
2023-03-16T00:47:14.448Z,5.43
2023-03-16T00:49:43.300Z,5.60
2023-03-16T00:52:15.149Z,5.90
2023-03-16T00:54:46.482Z,5.73
2023-03-16T00:57:16.435Z,5.73
2023-03-16T00:59:42.947Z,5.13
2023-03-16T01:02:11.086Z,5.20
2023-03-16T01:04:37.914Z,4.77
2023-03-16T01:07:05.156Z,4.70
2023-03-16T01:09:37.090Z,5.20
2023-03-16T01:12:10.744Z,5.27
2023-03-16T01:14:38.551Z,6.00
2023-03-16T01:17:08.355Z,5.03
2023-03-16T01:19:36.936Z,5.13
2023-03-16T01:22:05.765Z,5.20
2023-03-16T01:24:34.711Z,4.50
2023-03-16T01:27:01.633Z,5.07
2023-03-16T01:29:28.241Z,5.50
2023-03-16T01:31:57.050Z,5.53
2023-03-16T01:34:23.551Z,5.90
2023-03-16T01:36:51.240Z,5.60
2023-03-16T01:39:25.923Z,5.50
2023-03-16T01:41:52.476Z,6.03
2023-03-16T01:44:23.011Z,6.43
2023-03-16T01:46:50.021Z,6.23
2023-03-16T01:49:25.166Z,6.50
2023-03-16T01:52:03.327Z,6.27
2023-03-16T01:55:00.529Z,6.83
2023-03-16T01:57:30.736Z,6.37
2023-03-16T02:00:19.566Z,6.67
2023-03-16T02:03:08.166Z,7.03
2023-03-16T02:05:47.124Z,6.70
2023-03-16T02:08:16.971Z,6.97
2023-03-16T02:10:45.006Z,7.23
2023-03-16T02:13:12.564Z,7.37
2023-03-16T02:15:39.338Z,6.67
2023-03-16T02:18:07.793Z,6.53
2023-03-16T02:20:50.039Z,7.27
2023-03-16T02:23:19.400Z,8.63
2023-03-16T02:26:28.404Z,8.80
2023-03-16T02:29:22.523Z,7.80
2023-03-16T02:31:52.019Z,7.93
2023-03-16T02:34:19.346Z,7.60
2023-03-16T02:36:48.720Z,7.33
2023-03-16T02:39:17.690Z,7.50
2023-03-16T02:41:46.738Z,6.60
2023-03-16T02:44:24.986Z,8.03
2023-03-16T02:47:00.048Z,6.60
2023-03-16T02:49:34.036Z,6.80
2023-03-16T02:52:00.528Z,6.50
2023-03-16T02:54:27.261Z,6.83
2023-03-16T02:56:53.900Z,7.27
2023-03-16T02:59:21.510Z,7.17
2023-03-16T03:01:48.076Z,7.83
2023-03-16T03:04:15.963Z,7.13
2023-03-16T03:06:42.905Z,7.60
2023-03-16T03:09:13.239Z,7.23
2023-03-16T03:11:41.090Z,7.47
2023-03-16T03:14:08.016Z,7.53
2023-03-16T03:16:36.618Z,7.50
2023-03-16T03:19:03.165Z,7.67
2023-03-16T03:21:34.664Z,7.90
2023-03-16T03:24:01.112Z,7.77
2023-03-16T03:26:27.588Z,7.63
2023-03-16T03:28:57.365Z,7.27
2023-03-16T03:31:23.892Z,8.23
2023-03-16T03:33:51.353Z,7.90
2023-03-16T03:36:18.246Z,7.67
2023-03-16T03:38:45.475Z,7.37
2023-03-16T03:41:12.693Z,7.87
2023-03-16T03:43:39.566Z,8.53
2023-03-16T03:46:11.255Z,8.17
2023-03-16T03:48:37.773Z,8.13
2023-03-16T03:51:05.522Z,8.17
2023-03-16T03:53:46.698Z,8.30
2023-03-16T03:56:21.061Z,8.00
2023-03-16T03:58:47.697Z,8.20
2023-03-16T04:01:21.596Z,7.87
2023-03-16T04:03:48.694Z,8.73
2023-03-16T04:06:16.004Z,8.73
2023-03-16T04:08:42.839Z,8.00
2023-03-16T04:11:12.764Z,8.23
2023-03-16T04:13:39.648Z,8.97
2023-03-16T04:16:06.286Z,9.17
2023-03-16T04:18:40.233Z,8.30
2023-03-16T04:21:14.334Z,9.53
2023-03-16T04:23:42.521Z,9.57
2023-03-16T04:26:09.603Z,9.63
2023-03-16T04:28:36.569Z,9.53
2023-03-16T04:31:08.636Z,8.83
2023-03-16T04:33:40.458Z,8.20
2023-03-16T04:36:07.507Z,8.93
2023-03-16T04:38:36.627Z,7.87
2023-03-16T04:41:05.626Z,8.10
2023-03-16T04:43:36.289Z,7.77
2023-03-16T04:46:16.526Z,7.57
2023-03-16T04:48:43.093Z,7.73
2023-03-16T04:51:10.600Z,7.63
2023-03-16T04:53:41.451Z,7.47
2023-03-16T04:56:19.645Z,7.90
2023-03-16T04:58:51.289Z,8.07
2023-03-16T05:01:20.016Z,8.17
2023-03-16T05:03:49.769Z,7.87
2023-03-16T05:06:16.902Z,8.33
2023-03-16T05:08:43.417Z,7.40
2023-03-16T05:11:10.150Z,7.73
2023-03-16T05:13:46.256Z,8.07
2023-03-16T05:16:12.947Z,7.93
2023-03-16T05:18:41.616Z,8.23
2023-03-16T05:21:08.326Z,7.90
2023-03-16T05:23:48.750Z,8.33
2023-03-16T05:26:15.213Z,8.87
2023-03-16T05:28:42.511Z,8.53
2023-03-16T05:31:12.093Z,8.93
2023-03-16T05:33:44.543Z,8.57
2023-03-16T05:36:15.729Z,7.83
2023-03-16T05:38:45.993Z,8.27
2023-03-16T05:41:21.470Z,8.73
2023-03-16T05:44:14.070Z,8.33
2023-03-16T05:47:04.044Z,7.77
2023-03-16T05:49:32.376Z,8.13
2023-03-16T05:52:01.842Z,8.33
2023-03-16T05:54:30.873Z,8.53
2023-03-16T05:56:57.474Z,7.97
2023-03-16T05:59:24.235Z,8.23
2023-03-16T06:01:54.475Z,8.63
2023-03-16T06:04:21.853Z,9.10
2023-03-16T06:06:48.759Z,7.73
2023-03-16T06:09:24.327Z,8.47
2023-03-16T06:11:51.143Z,7.57
2023-03-16T06:14:21.138Z,8.70
2023-03-16T06:16:47.876Z,8.13
2023-03-16T06:19:15.782Z,8.23
2023-03-16T06:22:01.164Z,7.77
2023-03-16T06:24:28.351Z,7.30
2023-03-16T06:26:54.834Z,7.80
2023-03-16T06:29:25.669Z,7.87
2023-03-16T06:31:52.706Z,7.77
2023-03-16T06:34:20.901Z,7.67
2023-03-16T06:36:47.406Z,7.93
2023-03-16T06:39:14.768Z,8.20
2023-03-16T06:41:45.297Z,7.90
2023-03-16T06:44:14.377Z,9.33
2023-03-16T06:46:51.250Z,10.57
2023-03-16T06:49:17.694Z,10.87
2023-03-16T06:51:44.224Z,12.00
2023-03-16T06:54:11.688Z,11.33
2023-03-16T06:56:39.780Z,10.87
2023-03-16T06:59:06.985Z,9.50
2023-03-16T07:01:33.620Z,8.07
2023-03-16T07:04:01.802Z,7.27
2023-03-16T07:06:31.253Z,6.73
2023-03-16T07:08:57.764Z,6.53
2023-03-16T07:11:24.777Z,6.63
2023-03-16T07:13:51.757Z,5.97
2023-03-16T07:16:20.281Z,6.03
2023-03-16T07:18:47.793Z,5.87
2023-03-16T07:21:16.319Z,5.77
2023-03-16T07:23:44.677Z,5.93
2023-03-16T07:26:13.924Z,6.03
2023-03-16T07:28:49.779Z,5.97
2023-03-16T07:31:16.894Z,5.67
2023-03-16T07:33:43.668Z,5.10
2023-03-16T07:36:14.403Z,4.70
2023-03-16T07:38:46.489Z,5.10
2023-03-16T07:41:14.074Z,4.30
2023-03-16T07:43:41.142Z,4.83
2023-03-16T07:46:10.550Z,4.50
2023-03-16T07:48:37.401Z,4.67
2023-03-16T07:51:03.921Z,4.70
2023-03-16T07:53:30.931Z,4.83
2023-03-16T07:56:17.654Z,4.97
2023-03-16T07:58:47.143Z,4.93
2023-03-16T08:01:13.798Z,4.93
2023-03-16T08:03:40.434Z,5.07
2023-03-16T08:06:07.079Z,5.07
2023-03-16T08:08:35.176Z,5.20
2023-03-16T08:11:01.790Z,4.63
2023-03-16T08:13:43.803Z,4.90
2023-03-16T08:16:10.590Z,4.67
2023-03-16T08:18:39.496Z,5.33
2023-03-16T08:21:06.675Z,5.47
2023-03-16T08:23:33.831Z,5.60
2023-03-16T08:26:01.101Z,5.83
2023-03-16T08:28:27.984Z,5.37
2023-03-16T08:30:58.453Z,5.33
2023-03-16T08:33:46.865Z,5.47
2023-03-16T08:36:16.729Z,5.30
2023-03-16T08:39:03.749Z,5.63
2023-03-16T08:41:35.285Z,5.30
2023-03-16T08:44:07.748Z,4.50
2023-03-16T08:46:34.491Z,4.93
2023-03-16T08:49:02.734Z,5.20
2023-03-16T08:51:29.520Z,4.50
2023-03-16T08:53:56.022Z,4.10
2023-03-16T08:56:22.895Z,4.33
2023-03-16T08:58:50.604Z,3.87
2023-03-16T09:01:19.551Z,3.57
2023-03-16T09:03:46.526Z,3.90
2023-03-16T09:06:15.684Z,3.70
2023-03-16T09:08:44.314Z,3.63
2023-03-16T09:11:17.104Z,3.57
2023-03-16T09:13:44.628Z,3.63
2023-03-16T09:16:13.825Z,3.90
2023-03-16T09:18:41.162Z,3.77
2023-03-16T09:21:10.365Z,3.43
2023-03-16T09:23:37.611Z,3.30
2023-03-16T09:26:07.437Z,3.10
2023-03-16T09:28:36.036Z,3.37
2023-03-16T09:31:03.304Z,3.80
2023-03-16T09:33:32.045Z,3.20
2023-03-16T09:35:59.948Z,2.87
2023-03-16T09:38:26.820Z,2.70
2023-03-16T09:41:06.657Z,2.40
2023-03-16T09:43:51.689Z,2.10
2023-03-16T09:46:25.574Z,2.20
2023-03-16T09:48:53.787Z,2.53
2023-03-16T09:51:32.472Z,2.27
2023-03-16T09:54:02.792Z,1.70
2023-03-16T09:56:36.617Z,2.00
2023-03-16T09:59:11.797Z,1.10
2023-03-16T10:01:44.002Z,1.37
2023-03-16T10:04:32.285Z,1.00
2023-03-16T10:07:20.063Z,0.80
2023-03-16T10:10:05.380Z,0.63
2023-03-16T10:12:41.815Z,0.90
2023-03-16T10:15:18.413Z,0.90
2023-03-16T10:18:13.483Z,0.90
2023-03-16T10:20:41.881Z,0.70
2023-03-16T10:23:18.373Z,0.60
2023-03-16T10:25:48.961Z,0.80
2023-03-16T10:28:31.989Z,0.90
2023-03-16T10:31:00.713Z,0.70
2023-03-16T10:33:36.487Z,0.70
2023-03-16T10:36:34.506Z,0.77
2023-03-16T10:39:07.823Z,0.50
2023-03-16T10:41:37.283Z,0.70
2023-03-16T10:44:11.994Z,0.70
2023-03-16T10:46:41.850Z,0.60
2023-03-16T10:49:44.302Z,0.50
2023-03-16T10:52:29.666Z,0.60
2023-03-16T10:55:00.937Z,0.60
2023-03-16T10:57:27.367Z,0.70
2023-03-16T10:59:57.578Z,0.57
2023-03-16T11:02:31.786Z,0.60
2023-03-16T11:04:58.603Z,0.70
2023-03-16T11:07:25.584Z,0.80
2023-03-16T11:09:53.792Z,0.60
2023-03-16T11:12:41.417Z,1.00
2023-03-16T11:15:25.089Z,0.70
2023-03-16T11:17:55.150Z,0.73
2023-03-16T11:20:28.532Z,0.50
2023-03-16T11:22:56.229Z,0.60
2023-03-16T11:25:46.991Z,0.60
2023-03-16T11:28:24.055Z,0.57
2023-03-16T11:31:10.080Z,0.43
2023-03-16T11:33:37.960Z,0.57
2023-03-16T11:36:20.447Z,0.50
2023-03-16T11:38:58.936Z,0.67
2023-03-16T11:41:32.120Z,0.67
2023-03-16T11:44:25.003Z,0.40
2023-03-16T11:47:13.322Z,0.70
2023-03-16T11:50:11.731Z,0.60
2023-03-16T11:52:57.414Z,0.50
2023-03-16T11:56:08.215Z,0.43
2023-03-16T11:58:51.592Z,0.60
2023-03-16T12:01:20.788Z,0.60
2023-03-16T12:04:01.911Z,0.50
2023-03-16T12:06:41.472Z,0.50
2023-03-16T12:09:18.646Z,0.50
2023-03-16T12:12:11.863Z,0.50
2023-03-16T12:14:59.638Z,0.40
2023-03-16T12:17:31.346Z,0.70
2023-03-16T12:20:14.011Z,0.80
2023-03-16T12:22:52.196Z,0.50
2023-03-16T12:25:22.440Z,0.60
2023-03-16T12:28:00.351Z,0.50
2023-03-16T12:30:43.846Z,0.50
2023-03-16T12:33:10.303Z,0.50
2023-03-16T12:35:45.084Z,0.50
2023-03-16T12:38:29.977Z,0.63
2023-03-16T12:41:11.860Z,0.60
2023-03-16T12:43:52.831Z,0.70
2023-03-16T12:46:36.298Z,0.70
2023-03-16T12:49:06.869Z,0.50
2023-03-16T12:51:43.909Z,0.50
2023-03-16T12:54:22.745Z,0.70
2023-03-16T12:56:51.595Z,0.60
2023-03-16T12:59:21.035Z,0.50
2023-03-16T13:01:53.574Z,0.50
2023-03-16T13:04:29.442Z,0.70
2023-03-16T13:07:16.524Z,0.60
2023-03-16T13:10:10.099Z,0.57
2023-03-16T13:12:40.629Z,0.70
2023-03-16T13:15:23.467Z,0.87
2023-03-16T13:18:03.392Z,2.30
2023-03-16T13:20:32.813Z,0.60
2023-03-16T13:23:24.007Z,0.60
2023-03-16T13:26:12.730Z,0.50
2023-03-16T13:28:39.310Z,0.50
2023-03-16T13:31:21.582Z,0.60
2023-03-16T13:33:49.483Z,0.60
2023-03-16T13:36:17.525Z,0.67
2023-03-16T13:38:44.644Z,0.50
2023-03-16T13:41:14.218Z,0.60
2023-03-16T13:43:44.095Z,0.60
2023-03-16T13:46:15.736Z,0.60
2023-03-16T13:48:42.643Z,0.50
2023-03-16T13:51:22.564Z,0.83
2023-03-16T13:53:50.697Z,0.63
2023-03-16T13:56:23.773Z,0.70
2023-03-16T13:58:52.351Z,0.70
2023-03-16T14:01:25.317Z,0.73
2023-03-16T14:03:53.605Z,0.70
2023-03-16T14:06:28.670Z,0.70
2023-03-16T14:09:05.451Z,0.80
2023-03-16T14:11:32.045Z,0.70
2023-03-16T14:14:02.017Z,0.70
2023-03-16T14:16:31.857Z,0.80
2023-03-16T14:19:02.626Z,0.63
2023-03-16T14:21:31.854Z,0.90
2023-03-16T14:24:02.046Z,0.50
2023-03-16T14:26:40.964Z,0.50
2023-03-16T14:29:28.340Z,0.77
2023-03-16T14:31:55.417Z,0.60
2023-03-16T14:34:36.228Z,0.70
2023-03-16T14:37:15.754Z,0.80
2023-03-16T14:39:42.761Z,0.80
2023-03-16T14:42:24.257Z,0.63
2023-03-16T14:44:50.992Z,0.60
2023-03-16T14:47:25.013Z,0.70
2023-03-16T14:49:53.290Z,0.80
2023-03-16T14:52:27.118Z,1.90
2023-03-16T14:54:55.221Z,1.10
2023-03-16T14:57:22.382Z,1.63
2023-03-16T14:59:48.843Z,2.13
2023-03-16T15:02:20.362Z,2.03
2023-03-16T15:04:48.372Z,1.40
2023-03-16T15:07:25.017Z,1.20
2023-03-16T15:09:53.897Z,1.00
2023-03-16T15:12:21.757Z,1.53
2023-03-16T15:15:06.909Z,1.80
2023-03-16T15:17:33.605Z,1.70
2023-03-16T15:20:00.161Z,1.50
2023-03-16T15:22:32.305Z,1.00
2023-03-16T15:25:01.491Z,1.23
2023-03-16T15:27:32.788Z,1.60
2023-03-16T15:29:59.550Z,1.63
2023-03-16T15:32:26.305Z,1.10
2023-03-16T15:34:52.903Z,1.00
2023-03-16T15:37:20.342Z,1.27
2023-03-16T15:39:47.326Z,1.13
2023-03-16T15:42:18.736Z,1.20
2023-03-16T15:44:46.588Z,1.20
2023-03-16T15:47:13.289Z,1.10
2023-03-16T15:49:47.260Z,1.27
2023-03-16T15:52:32.488Z,0.93
2023-03-16T15:55:04.358Z,1.10
2023-03-16T15:57:31.961Z,1.00
2023-03-16T15:59:59.264Z,1.20
2023-03-16T16:02:29.814Z,1.20
2023-03-16T16:04:57.074Z,1.10
2023-03-16T16:07:23.971Z,1.03
2023-03-16T16:09:51.111Z,1.10
2023-03-16T16:12:19.638Z,1.30
2023-03-16T16:14:46.221Z,1.13
2023-03-16T16:17:36.629Z,1.20
2023-03-16T16:20:22.900Z,1.33
2023-03-16T16:22:51.931Z,2.17
2023-03-16T16:25:21.328Z,2.50
2023-03-16T16:27:48.117Z,2.73
2023-03-16T16:30:21.898Z,2.00
2023-03-16T16:32:49.167Z,1.93
2023-03-16T16:35:24.023Z,1.90
2023-03-16T16:37:51.230Z,2.13
2023-03-16T16:40:23.337Z,2.73
2023-03-16T16:42:52.961Z,2.50
2023-03-16T16:45:23.327Z,2.43
2023-03-16T16:47:52.226Z,2.03
2023-03-16T16:50:23.386Z,2.43
2023-03-16T16:52:50.562Z,4.00
2023-03-16T16:55:18.100Z,3.00
2023-03-16T16:57:45.430Z,3.13
2023-03-16T17:00:30.242Z,2.40
2023-03-16T17:02:58.512Z,2.00
2023-03-16T17:05:29.930Z,1.50
2023-03-16T17:07:56.589Z,1.50
2023-03-16T17:10:27.170Z,1.53
2023-03-16T17:12:56.836Z,1.50
2023-03-16T17:15:27.907Z,1.70
2023-03-16T17:18:02.251Z,1.90
2023-03-16T17:20:30.005Z,1.90
2023-03-16T17:22:58.680Z,2.30
2023-03-16T17:25:25.708Z,2.23
2023-03-16T17:27:54.517Z,3.33
2023-03-16T17:30:25.281Z,3.10
2023-03-16T17:32:53.700Z,2.70
2023-03-16T17:35:20.649Z,1.90
2023-03-16T17:37:47.867Z,2.20
2023-03-16T17:40:20.220Z,1.93
2023-03-16T17:42:47.777Z,1.50
2023-03-16T17:45:20.866Z,1.70
2023-03-16T17:47:48.140Z,1.63
2023-03-16T17:50:24.492Z,1.97
2023-03-16T17:52:52.861Z,2.60
2023-03-16T17:55:22.662Z,2.60
2023-03-16T17:57:53.526Z,2.73
2023-03-16T18:00:23.576Z,2.13
2023-03-16T18:02:56.078Z,2.30
2023-03-16T18:05:31.180Z,2.50
2023-03-16T18:08:20.502Z,2.07
2023-03-16T18:10:49.961Z,2.13
2023-03-16T18:13:21.099Z,3.03
2023-03-16T18:15:48.533Z,2.60
2023-03-16T18:18:23.561Z,2.27
2023-03-16T18:20:52.055Z,4.10
2023-03-16T18:23:21.422Z,4.23
2023-03-16T18:25:49.982Z,5.43
2023-03-16T18:28:18.011Z,7.50
2023-03-16T18:30:47.511Z,12.53
2023-03-16T18:33:27.434Z,13.67
2023-03-16T18:35:56.894Z,7.87
2023-03-16T18:38:31.075Z,7.70
2023-03-16T18:41:00.652Z,6.23
2023-03-16T18:43:27.855Z,4.30
2023-03-16T18:45:55.090Z,4.13
2023-03-16T18:48:31.540Z,3.63
2023-03-16T18:50:58.707Z,7.90
2023-03-16T18:53:26.593Z,11.80
2023-03-16T18:55:55.061Z,16.70
2023-03-16T18:58:24.620Z,18.63
2023-03-16T19:00:57.528Z,15.47
2023-03-16T19:03:30.266Z,10.17
2023-03-16T19:05:58.600Z,6.87
2023-03-16T19:08:26.922Z,5.67
2023-03-16T19:10:56.965Z,5.77
2023-03-16T19:13:24.505Z,6.13
2023-03-16T19:15:53.048Z,6.03
2023-03-16T19:18:19.639Z,4.90
2023-03-16T19:20:50.165Z,4.67
2023-03-16T19:23:22.886Z,3.97
2023-03-16T19:25:50.798Z,5.63
2023-03-16T19:28:36.624Z,6.60
2023-03-16T19:31:13.589Z,5.73
2023-03-16T19:33:40.033Z,5.20
2023-03-16T19:36:11.554Z,4.83
2023-03-16T19:38:37.997Z,4.20
2023-03-16T19:41:05.182Z,3.87
2023-03-16T19:43:31.709Z,3.73
2023-03-16T19:45:58.193Z,4.97
2023-03-16T19:48:32.958Z,5.10
2023-03-16T19:51:00.463Z,5.63
2023-03-16T19:53:27.462Z,5.33
2023-03-16T19:55:54.522Z,5.60
2023-03-16T19:58:30.145Z,5.20
2023-03-16T20:00:57.116Z,5.10
2023-03-16T20:03:23.758Z,4.70
2023-03-16T20:05:50.327Z,4.70
2023-03-16T20:08:26.532Z,4.50
2023-03-16T20:11:06.486Z,4.40
2023-03-16T20:13:34.760Z,4.13
2023-03-16T20:16:01.480Z,4.47
2023-03-16T20:18:29.326Z,4.50
2023-03-16T20:20:55.761Z,4.63
2023-03-16T20:23:26.245Z,4.53
2023-03-16T20:26:01.943Z,3.70
2023-03-16T20:28:36.986Z,3.60
2023-03-16T20:31:07.865Z,6.00
2023-03-16T20:33:34.374Z,6.33
2023-03-16T20:36:01.038Z,7.10
2023-03-16T20:38:27.570Z,5.67
2023-03-16T20:40:54.532Z,4.57
2023-03-16T20:43:30.091Z,5.17
2023-03-16T20:45:58.953Z,5.17
2023-03-16T20:48:27.364Z,3.90
2023-03-16T20:50:54.991Z,3.57
2023-03-16T20:53:22.390Z,3.40
2023-03-16T20:55:50.286Z,4.10
2023-03-16T20:58:29.150Z,3.00
2023-03-16T21:01:00.935Z,3.17
2023-03-16T21:03:30.806Z,3.50
2023-03-16T21:05:59.804Z,3.23
2023-03-16T21:08:27.146Z,4.00
2023-03-16T21:10:56.149Z,4.00
2023-03-16T21:13:31.848Z,3.63
2023-03-16T21:16:01.511Z,4.60
2023-03-16T21:18:29.123Z,4.63
2023-03-16T21:20:56.163Z,5.40
2023-03-16T21:23:23.872Z,4.60
2023-03-16T21:25:54.721Z,4.97
2023-03-16T21:28:23.184Z,5.33
2023-03-16T21:30:52.862Z,5.20
2023-03-16T21:33:53.810Z,5.93
2023-03-16T21:36:24.444Z,5.83
2023-03-16T21:38:51.618Z,5.13
2023-03-16T21:41:18.815Z,4.07
2023-03-16T21:43:46.961Z,4.13
2023-03-16T21:46:24.399Z,3.90
2023-03-16T21:48:54.643Z,3.83
2023-03-16T21:51:31.216Z,3.10
2023-03-16T21:53:58.095Z,4.97
2023-03-16T21:56:26.107Z,5.07
2023-03-16T21:58:54.025Z,6.43
2023-03-16T22:01:31.557Z,4.90
2023-03-16T22:04:02.657Z,5.10
2023-03-16T22:06:29.825Z,4.27
2023-03-16T22:08:59.566Z,4.00
2023-03-16T22:11:28.511Z,3.70
2023-03-16T22:13:56.527Z,4.93
2023-03-16T22:16:25.554Z,4.07
2023-03-16T22:18:56.311Z,5.03
2023-03-16T22:21:29.191Z,4.13
2023-03-16T22:23:56.998Z,4.37
2023-03-16T22:26:23.807Z,4.47
2023-03-16T22:28:53.555Z,4.20
2023-03-16T22:31:34.607Z,4.63
2023-03-16T22:34:03.050Z,4.47
2023-03-16T22:36:31.526Z,4.37
2023-03-16T22:39:12.198Z,5.67
2023-03-16T22:41:38.748Z,4.60
2023-03-16T22:44:05.540Z,4.70
2023-03-16T22:46:32.069Z,4.70
2023-03-16T22:48:58.622Z,4.33
2023-03-16T22:51:37.717Z,3.63
2023-03-16T22:54:08.959Z,4.43
2023-03-16T22:56:35.745Z,4.37
2023-03-16T22:59:06.969Z,4.77
2023-03-16T23:01:44.612Z,4.23
2023-03-16T23:04:23.034Z,4.93
2023-03-16T23:06:52.631Z,4.90
2023-03-16T23:09:21.806Z,4.57
2023-03-16T23:11:53.789Z,5.23
2023-03-16T23:14:27.182Z,4.40
2023-03-16T23:16:53.960Z,4.07
2023-03-16T23:19:25.110Z,4.90
2023-03-16T23:21:54.661Z,4.60
2023-03-16T23:24:22.024Z,4.50
2023-03-16T23:26:49.741Z,4.67
2023-03-16T23:29:16.580Z,12.73
2023-03-16T23:31:43.068Z,19.63
2023-03-16T23:34:11.793Z,9.57
2023-03-16T23:36:38.991Z,5.03
2023-03-16T23:39:06.093Z,5.53
2023-03-16T23:41:33.730Z,4.10
2023-03-16T23:44:01.380Z,4.43
2023-03-16T23:46:29.505Z,4.43
2023-03-16T23:48:58.486Z,4.13
2023-03-16T23:51:31.374Z,3.40
2023-03-16T23:53:58.483Z,3.80
2023-03-16T23:56:26.141Z,3.60
2023-03-16T23:58:54.198Z,3.30
